Terminal Aerodrome Forecast
Issued by NWS Topeka, KS

Home | Current Version | Previous Version | Text Only | Print | Product List | Glossary On
Versions: 1 2 3 4 5 6 7 8 9 10 11 12 13 14 15 16 17 18 19 20 21
803
FTUS43 KTOP 131317 AAB
TAFTOP
TAF AMD
KTOP 131317Z 1313/1412 09008KT P6SM OVC080
     FM131700 10010KT P6SM BKN070
     FM140400 12010KT P6SM OVC040=

USA.gov is the U.S. government's official web portal to all federal, state and local government web resources and services.